Terminal Aerodrome Forecast
Issued by NWS Glasgow, MT

Home | Current Version | Previous Version | Text Only | Print | Product List | Glossary On
Versions: 1 2 3 4 5 6 7 8 9 10 11 12 13 14 15 16
579
FTUS45 KGGW 201728
TAFGGW
TAF
KGGW 201728Z 2018/2118 23006KT P6SM SKC
     FM210100 12007KT P6SM BKN060 WS020/23025KT
     FM211000 22005KT P6SM SCT060
     FM211600 21005KT P6SM SCT020=

USA.gov is the U.S. government's official web portal to all federal, state and local government web resources and services.